Terminal Aerodrome Forecast
Issued by NWS

Home | Current Version | Previous Version | Text Only | Print | Product List | Glossary Off
Versions: 1 2 3 4 5 6 7 8 9 10 11 12 13 14 15 16 17 18 19 20 21

941
FTUS44 KTSA 191224 AAA
TAFXNA
TAF AMD
KXNA 191224Z 1912/2012 18003KT P6SM SCT250
      TEMPO 1912/1914 3SM BR SCT002
     FM191600 18010G18KT P6SM FEW050
     FM200100 17011KT P6SM SKC=

USA.gov is the U.S. government's official web portal to all federal, state and local government web resources and services.